| time (UTC) | temp F | wind direction | speed knots | gust knots | rain 1hr in | rain 24hr in | rain mn in | humidity % | barometer mb |
| 20260510131032 | 48 | 2 | 1.7 | 2.6 | 0.00 | 0.00 | 0.00 | 98 | 1031.4 |
| 20260510130029 | 48 | 13 | 0.9 | 2.6 | 0.00 | 0.00 | 0.00 | 98 | 1031.4 |
| 20260510125028 | 48 | 354 | 0.9 | 2.6 | 0.00 | 0.00 | 0.00 | 98 | 1031.6 |
| 20260510124025 | 47 | 351 | 1.7 | 2.6 | 0.00 | 0.00 | 0.00 | 98 | 1031.7 |
| 20260510123022 | 48 | 354 | 1.7 | 2.6 | 0.00 | 0.00 | 0.00 | 97 | 1031.7 |
| 20260510122021 | 48 | 348 | 1.7 | 3.5 | 0.00 | 0.00 | 0.00 | 97 | 1031.9 |
| 20260510121018 | 48 | 2 | 1.7 | 2.6 | 0.00 | 0.00 | 0.00 | 97 | 1031.9 |
| 20260510120036 | 49 | 3 | 2.6 | 3.5 | 0.00 | 0.00 | 0.00 | 96 | 1031.9 |
| 20260510115034 | 49 | 359 | 2.6 | 2.6 | 0.00 | 0.00 | 0.00 | 96 | 1031.9 |
| 20260510114032 | 49 | 3 | 2.6 | 4.3 | 0.00 | 0.00 | 0.00 | 95 | 1031.8 |
| 20260510113029 | 50 | 1 | 2.6 | 3.5 | 0.00 | 0.00 | 0.00 | 95 | 1031.9 |
| 20260510112026 | 50 | 3 | 2.6 | 3.5 | 0.00 | 0.00 | 0.00 | 94 | 1031.7 |
| 20260510111024 | 51 | 9 | 2.6 | 3.5 | 0.00 | 0.00 | 0.00 | 94 | 1031.7 |
| 20260510110043 | 50 | 15 | 2.6 | 3.5 | 0.00 | 0.00 | 0.00 | 95 | 1031.6 |
| 20260510105019 | 50 | 5 | 2.6 | 3.5 | 0.00 | 0.00 | 0.00 | 94 | 1031.6 |
| 20260510104017 | 51 | 4 | 2.6 | 2.6 | 0.00 | 0.00 | 0.00 | 94 | 1031.5 |
| 20260510103116 | 51 | 357 | 2.6 | 3.5 | 0.00 | 0.00 | 0.00 | 93 | 1031.4 |
| 20260510102033 | 52 | 352 | 2.6 | 3.5 | 0.00 | 0.00 | 0.00 | 93 | 1031.3 |
| 20260510101030 | 52 | 354 | 2.6 | 3.5 | 0.00 | 0.00 | 0.00 | 93 | 1031.2 |
| 20260510100027 | 52 | 349 | 1.7 | 2.6 | 0.00 | 0.00 | 0.00 | 92 | 1031.2 |
| 20260510095026 | 53 | 345 | 0.9 | 2.6 | 0.00 | 0.00 | 0.00 | 92 | 1031.1 |
| 20260510094022 | 53 | 355 | 0.9 | 1.7 | 0.00 | 0.00 | 0.00 | 91 | 1031.0 |
| 20260510093021 | 53 | 56 | 2.6 | 5.2 | 0.00 | 0.00 | 0.00 | 90 | 1030.9 |
| 20260510092018 | 53 | 1 | 1.7 | 3.5 | 0.00 | 0.00 | 0.00 | 90 | 1030.9 |
| 20260510091036 | 54 | 358 | 1.7 | 2.6 | 0.00 | 0.00 | 0.00 | 89 | 1030.8 |
| 20260510090034 | 54 | 18 | 0.9 | 4.3 | 0.00 | 0.00 | 0.00 | 87 | 1030.5 |
| 20260510085032 | 54 | 248 | 0.9 | 2.6 | 0.00 | 0.00 | 0.00 | 86 | 1030.3 |
| 20260510084029 | 55 | 339 | 1.7 | 2.6 | 0.00 | 0.00 | 0.00 | 84 | 1030.1 |
| 20260510083046 | 55 | 344 | 1.7 | 2.6 | 0.00 | 0.00 | 0.00 | 83 | 1029.8 |
| 20260510082023 | 56 | 352 | 2.6 | 3.5 | 0.00 | 0.00 | 0.00 | 83 | 1029.7 |
| 20260510081022 | 56 | 344 | 2.6 | 3.5 | 0.00 | 0.00 | 0.00 | 81 | 1029.3 |
| 20260510080018 | 57 | 344 | 2.6 | 3.5 | 0.00 | 0.00 | 0.00 | 80 | 1029.2 |
| 20260510075016 | 58 | 14 | 1.7 | 5.2 | 0.00 | 0.00 | 0.00 | 79 | 1029.2 |
| 20260510074035 | 58 | 31 | 2.6 | 4.3 | 0.00 | 0.00 | 0.00 | 78 | 1028.9 |
| 20260510073032 | 58 | 40 | 2.6 | 4.3 | 0.00 | 0.00 | 0.00 | 76 | 1028.8 |
| 20260510072031 | 59 | 57 | 2.6 | 4.3 | 0.00 | 0.00 | 0.00 | 75 | 1028.8 |
| 20260510071108 | 60 | 50 | 1.7 | 4.3 | 0.00 | 0.00 | 0.00 | 72 | 1028.5 |
| 20260510070025 | 60 | 32 | 1.7 | 3.5 | 0.00 | 0.00 | 0.00 | 70 | 1028.4 |
| 20260510065043 | 61 | 69 | 2.6 | 5.2 | 0.00 | 0.00 | 0.00 | 69 | 1028.2 |
| 20260510064021 | 61 | 72 | 1.7 | 3.5 | 0.00 | 0.00 | 0.00 | 66 | 1028.0 |
| 20260510063018 | 62 | 95 | 2.6 | 5.2 | 0.00 | 0.00 | 0.00 | 65 | 1028.0 |
| 20260510062057 | 62 | 93 | 2.6 | 5.2 | 0.00 | 0.00 | 0.00 | 63 | 1027.9 |
| 20260510061033 | 63 | 97 | 2.6 | 6.1 | 0.00 | 0.00 | 0.00 | 62 | 1027.7 |
| 20260510060133 | 63 | 102 | 2.6 | 5.2 | 0.00 | 0.00 | 0.00 | 61 | 1027.7 |
| 20260510055049 | 63 | 102 | 3.5 | 5.2 | 0.00 | 0.00 | 0.00 | 60 | 1027.5 |
| 20260510054026 | 63 | 128 | 2.6 | 4.3 | 0.00 | 0.00 | 0.00 | 60 | 1027.4 |
| 20260510053024 | 63 | 136 | 3.5 | 7.0 | 0.00 | 0.00 | 0.00 | 60 | 1027.3 |
| 20260510052021 | 63 | 121 | 4.3 | 6.1 | 0.00 | 0.00 | 0.00 | 60 | 1027.4 |
| 20260510051020 | 64 | 125 | 2.6 | 5.2 | 0.00 | 0.00 | 0.00 | 59 | 1027.3 |
| 20260510050016 | 64 | 111 | 3.5 | 6.1 | 0.00 | 0.00 | 0.00 | 60 | 1027.2 |
| 20260510045035 | 64 | 124 | 3.5 | 6.1 | 0.00 | 0.00 | 0.00 | 59 | 1027.3 |
| 20260510044053 | 64 | 136 | 3.5 | 5.2 | 0.00 | 0.00 | 0.00 | 59 | 1027.1 |
| 20260510043051 | 65 | 139 | 4.3 | 6.1 | 0.00 | 0.00 | 0.00 | 59 | 1027.0 |
| 20260510042029 | 64 | 142 | 2.6 | 5.2 | 0.00 | 0.00 | 0.00 | 60 | 1027.1 |
| 20260510041025 | 65 | 150 | 2.6 | 5.2 | 0.00 | 0.00 | 0.00 | 58 | 1027.0 |
| 20260510040042 | 65 | 132 | 3.5 | 7.0 | 0.00 | 0.00 | 0.00 | 58 | 1027.1 |
| 20260510035042 | 65 | 122 | 1.7 | 4.3 | 0.00 | 0.00 | 0.00 | 57 | 1026.9 |
| 20260510034039 | 64 | 146 | 3.5 | 6.1 | 0.00 | 0.00 | 0.00 | 57 | 1027.1 |
| 20260510033036 | 64 | 162 | 3.5 | 6.1 | 0.00 | 0.00 | 0.00 | 57 | 1027.2 |
| 20260510032034 | 64 | 132 | 2.6 | 6.1 | 0.00 | 0.00 | 0.00 | 57 | 1027.3 |
| 20260510031031 | 64 | 121 | 1.7 | 3.5 | 0.00 | 0.00 | 0.00 | 57 | 1027.4 |
| 20260510030029 | 64 | 151 | 3.5 | 7.0 | 0.00 | 0.00 | 0.00 | 58 | 1027.4 |
| 20260510025027 | 64 | 136 | 1.7 | 3.5 | 0.00 | 0.00 | 0.00 | 60 | 1027.5 |
| 20260510024024 | 64 | 59 | 3.5 | 7.8 | 0.00 | 0.00 | 0.00 | 59 | 1027.7 |
| 20260510023022 | 64 | 57 | 1.7 | 5.2 | 0.00 | 0.00 | 0.00 | 59 | 1027.9 |
| 20260510022020 | 63 | 111 | 0.9 | 4.3 | 0.00 | 0.00 | 0.00 | 60 | 1028.0 |
| 20260510021016 | 64 | 26 | 1.7 | 5.2 | 0.00 | 0.00 | 0.00 | 59 | 1028.2 |
| 20260510020035 | 63 | 12 | 1.7 | 3.5 | 0.00 | 0.00 | 0.00 | 60 | 1028.3 |
| 20260510015032 | 62 | 31 | 2.6 | 7.0 | 0.00 | 0.00 | 0.00 | 61 | 1028.5 |
| 20260510014030 | 63 | 36 | 2.6 | 6.1 | 0.00 | 0.00 | 0.00 | 60 | 1028.6 |
| 20260510013028 | 62 | 37 | 1.7 | 5.2 | 0.00 | 0.00 | 0.00 | 62 | 1028.6 |
| 20260510012025 | 60 | 192 | 1.7 | 3.5 | 0.00 | 0.00 | 0.00 | 64 | 1028.7 |
| 20260510011043 | 60 | 185 | 1.7 | 3.5 | 0.00 | 0.00 | 0.00 | 64 | 1028.7 |
| 20260510010019 | 60 | 269 | 0.9 | 1.7 | 0.00 | 0.00 | 0.00 | 65 | 1028.9 |
| 20260510005018 | 59 | 286 | 0.9 | 3.5 | 0.00 | 0.00 | 0.00 | 67 | 1029.0 |
| 20260510004040 | 58 | 340 | 1.7 | 2.6 | 0.00 | 0.00 | 0.00 | 68 | 1029.1 |
| 20260510003034 | 56 | 225 | 0.9 | 1.7 | 0.00 | 0.00 | 0.00 | 73 | 1029.0 |
| 20260510002031 | 54 | 225 | 0.9 | 2.6 | 0.00 | 0.00 | 0.00 | 75 | 1029.0 |
| 20260510001029 | 55 | 12 | 0.9 | 1.7 | 0.00 | 0.00 | 0.00 | 75 | 1028.9 |
| 20260510000026 | 53 | 3 | 0.9 | 2.6 | 0.00 | 0.00 | 0.00 | 76 | 1029.0 |
| 20260509235024 | 52 | 325 | 0.9 | 3.5 | 0.00 | 0.00 | 0.00 | 78 | 1028.8 |
| 20260509234021 | 50 | 327 | 1.7 | 3.5 | 0.00 | 0.00 | 0.00 | 81 | 1028.9 |
| 20260509233040 | 48 | 351 | 1.7 | 3.5 | 0.00 | 0.00 | 0.00 | 83 | 1028.9 |
| 20260509232017 | 47 | 350 | 0.9 | 2.6 | 0.00 | 0.00 | 0.00 | 84 | 1028.9 |
| 20260509231035 | 45 | 3 | 0.9 | 2.6 | 0.00 | 0.00 | 0.00 | 86 | 1028.8 |
| 20260509230033 | 43 | 352 | 1.7 | 2.6 | 0.00 | 0.00 | 0.00 | 87 | 1028.9 |
| 20260509225030 | 42 | 1 | 0.9 | 2.6 | 0.00 | 0.00 | 0.00 | 88 | 1028.9 |
| 20260509224048 | 40 | 17 | 1.7 | 2.6 | 0.00 | 0.00 | 0.00 | 89 | 1028.8 |
| 20260509223046 | 40 | 25 | 1.7 | 3.5 | 0.00 | 0.00 | 0.00 | 88 | 1028.8 |
| 20260509222022 | 39 | 37 | 1.7 | 3.5 | 0.00 | 0.00 | 0.00 | 87 | 1028.6 |
| 20260509221020 | 38 | 29 | 2.6 | 3.5 | 0.00 | 0.00 | 0.00 | 88 | 1028.6 |
| 20260509220017 | 36 | 44 | 1.7 | 3.5 | 0.00 | 0.00 | 0.00 | 89 | 1028.3 |
| 20260509215037 | 36 | 42 | 2.6 | 3.5 | 0.00 | 0.00 | 0.00 | 90 | 1028.3 |
| 20260509214055 | 36 | 32 | 2.6 | 3.5 | 0.00 | 0.00 | 0.00 | 92 | 1028.0 |
| 20260509213031 | 34 | 33 | 2.6 | 4.3 | 0.00 | 0.00 | 0.00 | 95 | 1027.8 |
| 20260509212110 | 33 | 45 | 2.6 | 3.5 | 0.00 | 0.00 | 0.00 | 96 | 1027.7 |
| 20260509211026 | 33 | 29 | 3.5 | 4.3 | 0.00 | 0.00 | 0.00 | 97 | 1027.4 |
| 20260509210024 | 33 | 33 | 3.5 | 4.3 | 0.00 | 0.00 | 0.00 | 97 | 1027.2 |
| 20260509205022 | 33 | 23 | 3.5 | 4.3 | 0.00 | 0.00 | 0.00 | 97 | 1027.1 |
| 20260509203017 | 33 | 25 | 3.5 | 4.3 | 0.00 | 0.00 | 0.00 | 97 | 1026.8 |
| 20260509202056 | 33 | 28 | 3.5 | 4.3 | 0.00 | 0.00 | 0.00 | 97 | 1026.7 |
| 20260509201032 | 32 | 33 | 3.5 | 4.3 | 0.00 | 0.00 | 0.00 | 97 | 1026.6 |
| 20260509200030 | 32 | 35 | 2.6 | 3.5 | 0.00 | 0.00 | 0.00 | 97 | 1026.5 |
| 20260509195028 | 33 | 37 | 2.6 | 2.6 | 0.00 | 0.00 | 0.00 | 97 | 1026.3 |
| 20260509194024 | 33 | 40 | 2.6 | 3.5 | 0.00 | 0.00 | 0.00 | 97 | 1026.1 |
| 20260509193023 | 34 | 34 | 3.5 | 3.5 | 0.00 | 0.00 | 0.00 | 97 | 1026.0 |
| 20260509192020 | 34 | 35 | 1.7 | 3.5 | 0.00 | 0.00 | 0.00 | 96 | 1026.0 |
| 20260509191018 | 34 | 40 | 2.6 | 3.5 | 0.00 | 0.00 | 0.00 | 96 | 1025.8 |
| 20260509190036 | 33 | 34 | 2.6 | 4.3 | 0.00 | 0.00 | 0.00 | 96 | 1025.7 |
| 20260509185033 | 34 | 31 | 2.6 | 3.5 | 0.00 | 0.00 | 0.00 | 96 | 1025.5 |
| 20260509184113 | 36 | 28 | 2.6 | 3.5 | 0.00 | 0.00 | 0.00 | 96 | 1025.5 |
| 20260509183030 | 36 | 23 | 2.6 | 3.5 | 0.00 | 0.00 | 0.00 | 96 | 1025.4 |
| 20260509182027 | 36 | 28 | 2.6 | 3.5 | 0.00 | 0.00 | 0.00 | 96 | 1025.3 |
| 20260509181045 | 36 | 23 | 3.5 | 3.5 | 0.00 | 0.00 | 0.00 | 96 | 1025.2 |
| 20260509180022 | 37 | 27 | 3.5 | 5.2 | 0.00 | 0.00 | 0.00 | 96 | 1025.2 |
| 20260509175019 | 37 | 25 | 3.5 | 4.3 | 0.00 | 0.00 | 0.00 | 96 | 1025.2 |
| 20260509174017 | 37 | 24 | 3.5 | 4.3 | 0.00 | 0.00 | 0.00 | 96 | 1025.1 |
| 20260509173034 | 36 | 20 | 3.5 | 4.3 | 0.00 | 0.00 | 0.00 | 96 | 1025.1 |
| 20260509172033 | 36 | 25 | 2.6 | 4.3 | 0.00 | 0.00 | 0.00 | 96 | 1025.1 |
| 20260509171030 | 37 | 21 | 3.5 | 4.3 | 0.00 | 0.00 | 0.00 | 96 | 1025.1 |
| 20260509170027 | 37 | 22 | 2.6 | 3.5 | 0.00 | 0.00 | 0.00 | 96 | 1025.1 |
| 20260509165026 | 38 | 13 | 2.6 | 3.5 | 0.00 | 0.00 | 0.00 | 96 | 1025.1 |
| 20260509164023 | 37 | 22 | 3.5 | 4.3 | 0.00 | 0.00 | 0.00 | 96 | 1025.3 |
| 20260509163020 | 37 | 21 | 3.5 | 4.3 | 0.00 | 0.00 | 0.00 | 96 | 1025.3 |
| 20260509162017 | 38 | 19 | 3.5 | 4.3 | 0.00 | 0.00 | 0.00 | 96 | 1025.1 |
| 20260509161036 | 38 | 20 | 3.5 | 3.5 | 0.00 | 0.00 | 0.00 | 96 | 1025.3 |
| 20260509160034 | 38 | 15 | 2.6 | 3.5 | 0.00 | 0.00 | 0.00 | 96 | 1025.5 |
| 20260509155031 | 37 | 22 | 2.6 | 3.5 | 0.00 | 0.00 | 0.00 | 95 | 1025.4 |
| 20260509154029 | 38 | 24 | 3.5 | 3.5 | 0.00 | 0.00 | 0.00 | 95 | 1025.4 |
| 20260509153026 | 38 | 28 | 2.6 | 3.5 | 0.00 | 0.00 | 0.00 | 95 | 1025.3 |
| 20260509152024 | 39 | 24 | 2.6 | 3.5 | 0.00 | 0.00 | 0.00 | 95 | 1025.4 |
| 20260509151043 | 39 | 25 | 2.6 | 3.5 | 0.00 | 0.00 | 0.00 | 95 | 1025.4 |
| 20260509150019 | 39 | 15 | 2.6 | 3.5 | 0.00 | 0.00 | 0.00 | 95 | 1025.4 |
| 20260509145018 | 40 | 7 | 3.5 | 4.3 | 0.00 | 0.00 | 0.00 | 95 | 1025.5 |
| 20260509144035 | 40 | 21 | 2.6 | 3.5 | 0.00 | 0.00 | 0.00 | 95 | 1025.6 |
| 20260509143134 | 40 | 17 | 3.5 | 4.3 | 0.00 | 0.00 | 0.00 | 95 | 1025.6 |
| 20260509142031 | 40 | 20 | 2.6 | 4.3 | 0.00 | 0.00 | 0.00 | 94 | 1025.7 |
| 20260509141028 | 40 | 19 | 3.5 | 3.5 | 0.00 | 0.00 | 0.00 | 94 | 1025.5 |
| 20260509140026 | 41 | 19 | 2.6 | 3.5 | 0.00 | 0.00 | 0.00 | 94 | 1025.5 |
| 20260509135023 | 41 | 26 | 2.6 | 3.5 | 0.00 | 0.00 | 0.00 | 93 | 1025.5 |
| 20260509134020 | 41 | 17 | 2.6 | 3.5 | 0.00 | 0.00 | 0.00 | 93 | 1025.6 |
| 20260509133017 | 42 | 14 | 2.6 | 3.5 | 0.00 | 0.00 | 0.00 | 93 | 1025.7 |
| 20260509132036 | 42 | 13 | 2.6 | 3.5 | 0.00 | 0.00 | 0.00 | 92 | 1025.6 |